Terminal Aerodrome Forecast
Issued by NWS Boston, MA

Home | Current Version | Previous Version | Text Only | Print | Product List | Glossary On
Versions: 1 2 3 4 5 6 7 8 9 10 11 12 13 14 15 16 17 18 19 20 21 22 23 24 25 26 27 28 29 30 31 32 33 34 35 36 37 38 39 40 41 42
000
FTUS41 KBOX 131120
TAFPVD
TAF
KPVD 131120Z 1312/1412 20005KT P6SM FEW110
     FM131530 19012G22KT P6SM SCT060
     FM131800 18015G26KT P6SM BKN070
     FM140400 20011G19KT 3SM BR BKN040
     FM140900 20009KT 3SM BR OVC015=

USA.gov is the U.S. government's official web portal to all federal, state and local government web resources and services.